createdAt,value
2019-03-17T00:02:21.052Z,97895.19
2019-03-17T00:04:51.278Z,97901.97
2019-03-17T00:07:21.560Z,97897.21
2019-03-17T00:09:51.870Z,97896.45
2019-03-17T00:12:22.098Z,97887.05
2019-03-17T00:15:04.243Z,97892.70
2019-03-17T00:17:25.224Z,97889.13
2019-03-17T00:19:56.313Z,97882.14
2019-03-17T00:22:27.190Z,97875.17
2019-03-17T00:25:08.549Z,97888.81
2019-03-17T00:27:30.451Z,97874.98
2019-03-17T00:30:00.672Z,97873.72
2019-03-17T00:32:30.954Z,97878.75
2019-03-17T00:35:01.790Z,97879.62
2019-03-17T00:37:32.825Z,97871.23
2019-03-17T00:40:03.205Z,97869.80
2019-03-17T00:42:34.343Z,97868.48
2019-03-17T00:45:05.156Z,97868.87
2019-03-17T00:47:35.474Z,97867.02
2019-03-17T00:50:06.098Z,97855.46
2019-03-17T00:52:37.424Z,97855.09
2019-03-17T00:55:07.746Z,97848.66
2019-03-17T00:57:38.390Z,97847.39
2019-03-17T01:00:10.235Z,97849.98
2019-03-17T01:02:40.782Z,97839.58
2019-03-17T01:05:11.415Z,97831.09
2019-03-17T01:07:42.153Z,97820.87
2019-03-17T01:10:12.408Z,97825.53
2019-03-17T01:12:44.868Z,97825.83
2019-03-17T01:15:14.635Z,97785.81
2019-03-17T01:17:44.855Z,97815.83
2019-03-17T01:20:15.632Z,97799.03
2019-03-17T01:22:45.936Z,97800.73
2019-03-17T01:25:17.323Z,97801.24
2019-03-17T01:27:47.611Z,97797.94
2019-03-17T01:30:17.904Z,97794.61
2019-03-17T01:32:48.146Z,97773.80
2019-03-17T01:35:18.883Z,97777.19
2019-03-17T01:37:49.099Z,97755.31
2019-03-17T01:40:20.467Z,97778.78
2019-03-17T01:42:51.303Z,97768.81
2019-03-17T01:45:21.473Z,97766.04
2019-03-17T01:47:52.780Z,97780.94
2019-03-17T01:50:23.311Z,97773.02
2019-03-17T01:52:53.532Z,97767.06
2019-03-17T01:55:25.830Z,97779.02
2019-03-17T01:57:56.019Z,97772.53
2019-03-17T02:00:26.276Z,97782.92
2019-03-17T02:02:56.863Z,97761.40
2019-03-17T02:05:27.045Z,97769.98
2019-03-17T02:07:57.633Z,97759.36
2019-03-17T02:10:28.266Z,97765.21
2019-03-17T02:12:58.562Z,97760.70
2019-03-17T02:15:28.840Z,97773.75
2019-03-17T02:17:59.439Z,97755.56
2019-03-17T02:20:30.382Z,97755.00
2019-03-17T02:23:00.905Z,97751.16
2019-03-17T02:25:31.843Z,97750.84
2019-03-17T02:28:02.319Z,97751.92
2019-03-17T02:30:32.521Z,97750.77
2019-03-17T02:33:02.802Z,97743.61
2019-03-17T02:35:39.241Z,97757.97
2019-03-17T02:38:05.302Z,97734.92
2019-03-17T02:40:36.683Z,97748.48
2019-03-17T02:43:07.243Z,97739.22
2019-03-17T02:45:38.396Z,97743.66
2019-03-17T02:48:08.650Z,97737.06
2019-03-17T02:50:38.907Z,97717.18
2019-03-17T02:53:09.635Z,97746.59
2019-03-17T02:55:40.558Z,97719.62
2019-03-17T02:58:11.210Z,97719.84
2019-03-17T03:00:42.018Z,97744.30
2019-03-17T03:03:13.328Z,97723.98
2019-03-17T03:05:54.592Z,97732.26
2019-03-17T03:08:15.807Z,97706.63
2019-03-17T03:10:46.029Z,97721.80
2019-03-17T03:13:16.258Z,97700.79
2019-03-17T03:15:46.475Z,97710.10
2019-03-17T03:19:36.606Z,97699.95
2019-03-17T03:22:06.803Z,97715.13
2019-03-17T03:24:37.378Z,97696.70
2019-03-17T03:27:07.944Z,97708.38
2019-03-17T03:29:38.541Z,97688.39
2019-03-17T03:32:09.036Z,97698.23
2019-03-17T03:34:39.250Z,97703.15
2019-03-17T03:37:09.784Z,97699.95
2019-03-17T03:39:40.356Z,97692.59
2019-03-17T03:42:11.292Z,97687.04
2019-03-17T03:44:41.550Z,97701.07
2019-03-17T03:47:11.767Z,97693.52
2019-03-17T03:49:44.201Z,97687.88
2019-03-17T03:52:14.459Z,97692.59
2019-03-17T03:54:44.744Z,97669.92
2019-03-17T03:57:15.045Z,97679.95
2019-03-17T03:59:46.435Z,97676.91
2019-03-17T04:02:17.023Z,97694.27
2019-03-17T04:04:47.683Z,97685.38
2019-03-17T04:07:18.428Z,97679.91
2019-03-17T04:09:48.628Z,97701.52
2019-03-17T04:12:18.915Z,97688.59
2019-03-17T04:14:49.511Z,97692.11
2019-03-17T04:17:20.228Z,97693.08
2019-03-17T04:19:50.783Z,97697.68
2019-03-17T04:22:21.398Z,97692.23
2019-03-17T04:24:52.238Z,97696.00
2019-03-17T04:27:22.413Z,97702.79
2019-03-17T04:29:52.700Z,97704.30
2019-03-17T04:32:22.929Z,97715.80
2019-03-17T04:34:53.553Z,97708.73
2019-03-17T04:37:24.131Z,97711.73
2019-03-17T04:39:54.702Z,97710.72
2019-03-17T04:42:25.420Z,97698.44
2019-03-17T04:44:55.986Z,97692.54
2019-03-17T04:47:26.216Z,97700.73
2019-03-17T04:49:56.714Z,97680.56
2019-03-17T04:52:28.364Z,97695.44
2019-03-17T04:54:59.211Z,97693.00
2019-03-17T04:57:29.461Z,97679.22
2019-03-17T04:59:59.746Z,97692.80
2019-03-17T05:02:31.106Z,97656.06
2019-03-17T05:05:01.316Z,97672.06
2019-03-17T05:07:31.573Z,97688.67
2019-03-17T05:10:02.165Z,97673.80
2019-03-17T05:12:32.431Z,97670.41
2019-03-17T05:15:02.704Z,97680.75
2019-03-17T05:17:34.023Z,97665.88
2019-03-17T05:20:05.036Z,97679.62
2019-03-17T05:22:35.651Z,97661.16
2019-03-17T05:25:06.240Z,97652.11
2019-03-17T05:27:36.478Z,97675.48
2019-03-17T05:30:07.454Z,97671.89
2019-03-17T05:32:37.757Z,97675.20
2019-03-17T05:35:08.023Z,97674.72
2019-03-17T05:37:38.402Z,97667.48
2019-03-17T05:40:08.718Z,97671.33
2019-03-17T05:42:40.806Z,97675.47
2019-03-17T05:45:11.730Z,97681.33
2019-03-17T05:47:41.951Z,97683.78
2019-03-17T05:50:12.315Z,97679.55
2019-03-17T05:52:42.611Z,97686.13
2019-03-17T05:55:12.890Z,97678.48
2019-03-17T05:57:43.455Z,97684.03
2019-03-17T06:00:15.236Z,97677.17
2019-03-17T06:02:46.169Z,97688.85
2019-03-17T06:05:16.446Z,97675.11
2019-03-17T06:07:46.639Z,97675.19
2019-03-17T06:10:16.940Z,97672.09
2019-03-17T06:12:47.262Z,97671.14
2019-03-17T06:15:17.526Z,97665.88
2019-03-17T06:17:48.128Z,97675.67
2019-03-17T06:20:19.105Z,97671.23
2019-03-17T06:22:49.364Z,97678.20
2019-03-17T06:25:19.638Z,97676.44
2019-03-17T06:27:49.903Z,97685.83
2019-03-17T06:30:20.182Z,97682.45
2019-03-17T06:32:50.387Z,97705.59
2019-03-17T06:35:21.314Z,97695.40
2019-03-17T06:37:51.839Z,97695.75
2019-03-17T06:40:22.471Z,97696.78
2019-03-17T06:42:53.020Z,97705.89
2019-03-17T06:45:23.247Z,97696.98
2019-03-17T06:47:53.531Z,97690.61
2019-03-17T06:50:25.512Z,97674.02
2019-03-17T06:52:55.722Z,97690.47
2019-03-17T06:55:25.993Z,97706.57
2019-03-17T06:57:56.267Z,97699.45
2019-03-17T07:00:26.920Z,97700.34
2019-03-17T07:02:57.166Z,97701.22
2019-03-17T07:05:27.359Z,97711.67
2019-03-17T07:07:57.567Z,97714.84
2019-03-17T07:10:27.839Z,97711.69
2019-03-17T07:12:58.436Z,97700.19
2019-03-17T07:15:29.040Z,97707.90
2019-03-17T07:17:59.286Z,97711.52
2019-03-17T07:20:31.317Z,97721.78
2019-03-17T07:23:01.980Z,97725.24
2019-03-17T07:25:32.190Z,97728.13
2019-03-17T07:28:02.411Z,97727.66
2019-03-17T07:30:32.686Z,97725.56
2019-03-17T07:33:03.292Z,97724.90
2019-03-17T07:35:33.539Z,97731.92
2019-03-17T07:38:03.817Z,97724.66
2019-03-17T07:40:34.705Z,97723.17
2019-03-17T07:43:06.428Z,97721.44
2019-03-17T07:45:37.950Z,97713.53
2019-03-17T07:48:08.207Z,97716.13
2019-03-17T07:50:38.406Z,97708.52
2019-03-17T07:53:08.627Z,97704.14
2019-03-17T07:55:38.926Z,97702.44
2019-03-17T07:58:09.619Z,97700.94
2019-03-17T08:00:40.852Z,97704.48
2019-03-17T08:03:11.075Z,97706.48
2019-03-17T08:05:41.344Z,97702.39
2019-03-17T08:08:11.926Z,97690.91
2019-03-17T08:10:42.195Z,97689.48
2019-03-17T08:13:12.884Z,97697.22
2019-03-17T08:15:43.435Z,97687.05
2019-03-17T08:18:14.087Z,97684.01
2019-03-17T08:20:44.680Z,97692.64
2019-03-17T08:23:15.197Z,97696.59
2019-03-17T08:25:45.730Z,97692.77
2019-03-17T08:28:16.375Z,97694.17
2019-03-17T08:30:53.160Z,97694.17
2019-03-17T08:33:18.933Z,97686.33
2019-03-17T08:35:50.140Z,97692.42
2019-03-17T08:38:22.336Z,97690.30
2019-03-17T08:40:53.618Z,97696.09
2019-03-17T08:43:24.464Z,97681.77
2019-03-17T08:45:55.088Z,97682.86
2019-03-17T08:48:25.301Z,97681.89
2019-03-17T08:50:55.815Z,97677.22
2019-03-17T08:53:26.398Z,97675.19
2019-03-17T08:55:56.979Z,97674.91
2019-03-17T08:58:28.291Z,97682.15
2019-03-17T09:00:58.782Z,97673.84
2019-03-17T09:03:28.993Z,97680.05
2019-03-17T09:05:59.263Z,97685.14
2019-03-17T09:08:34.770Z,97688.69
2019-03-17T09:11:02.670Z,97683.53
2019-03-17T09:13:33.009Z,97668.15
2019-03-17T09:16:03.846Z,97678.61
2019-03-17T09:18:34.677Z,97673.30
2019-03-17T09:21:05.259Z,97673.29
2019-03-17T09:23:36.110Z,97671.79
2019-03-17T09:26:06.643Z,97676.97
2019-03-17T09:28:37.364Z,97680.00
2019-03-17T09:31:07.827Z,97662.53
2019-03-17T09:33:38.217Z,97680.00
2019-03-17T09:36:08.484Z,97673.59
2019-03-17T09:38:47.269Z,97657.05
2019-03-17T09:41:11.873Z,97645.16
2019-03-17T09:43:42.188Z,97654.28
2019-03-17T09:46:12.866Z,97661.09
2019-03-17T09:48:43.542Z,97677.34
2019-03-17T09:51:13.819Z,97676.18
2019-03-17T09:53:44.177Z,97663.78
2019-03-17T09:56:15.160Z,97667.37
2019-03-17T09:58:45.839Z,97679.94
2019-03-17T10:01:16.317Z,97666.04
2019-03-17T10:03:46.786Z,97665.64
2019-03-17T10:06:17.038Z,97667.91
2019-03-17T10:08:59.410Z,97677.20
2019-03-17T10:11:19.889Z,97662.43
2019-03-17T10:13:51.199Z,97662.63
2019-03-17T10:16:21.459Z,97662.75
2019-03-17T10:18:52.073Z,97662.80
2019-03-17T10:21:22.315Z,97659.28
2019-03-17T10:23:52.591Z,97649.62
2019-03-17T10:26:22.802Z,97650.21
2019-03-17T10:28:53.367Z,97654.25
2019-03-17T10:31:23.554Z,97654.52
2019-03-17T10:33:54.408Z,97638.47
2019-03-17T10:36:24.952Z,97636.53
2019-03-17T10:38:55.748Z,97642.28
2019-03-17T10:41:26.568Z,97640.42
2019-03-17T10:43:57.271Z,97648.23
2019-03-17T10:46:27.470Z,97644.01
2019-03-17T10:48:58.619Z,97637.93
2019-03-17T10:51:28.986Z,97626.08
2019-03-17T10:53:59.230Z,97623.71
2019-03-17T10:56:29.714Z,97621.17
2019-03-17T10:59:00.325Z,97619.49
2019-03-17T11:01:30.859Z,97609.07
2019-03-17T11:04:01.138Z,97617.38
2019-03-17T11:06:31.616Z,97620.91
2019-03-17T11:09:02.251Z,97615.47
2019-03-17T11:11:33.022Z,97598.20
2019-03-17T11:14:04.466Z,97596.77
2019-03-17T11:16:35.560Z,97603.41
2019-03-17T11:19:06.170Z,97604.45
2019-03-17T11:21:37.046Z,97617.33
2019-03-17T11:24:07.940Z,97602.88
2019-03-17T11:26:38.139Z,97603.18
2019-03-17T11:29:08.350Z,97606.11
2019-03-17T11:31:38.635Z,97607.67
2019-03-17T11:34:08.900Z,97608.23
2019-03-17T11:36:39.516Z,97608.42
2019-03-17T11:39:10.192Z,97627.38
2019-03-17T11:41:40.770Z,97621.76
2019-03-17T11:44:11.016Z,97611.85
2019-03-17T11:46:41.299Z,97625.73
2019-03-17T11:49:12.592Z,97616.89
2019-03-17T11:51:43.194Z,97626.99
2019-03-17T11:54:13.831Z,97626.12
2019-03-17T11:56:44.771Z,97626.56
2019-03-17T11:59:15.366Z,97635.15
2019-03-17T12:01:46.479Z,97634.45
2019-03-17T12:04:17.271Z,97635.73
2019-03-17T12:06:47.577Z,97635.52
2019-03-17T12:09:28.627Z,97636.84
2019-03-17T12:11:50.092Z,97619.60
2019-03-17T12:14:20.652Z,97638.59
2019-03-17T12:16:50.919Z,97642.60
2019-03-17T12:19:21.579Z,97665.41
2019-03-17T12:21:53.324Z,97656.14
2019-03-17T12:24:24.280Z,97662.27
2019-03-17T12:26:54.589Z,97657.81
2019-03-17T12:29:25.076Z,97660.89
2019-03-17T12:31:55.967Z,97669.95
2019-03-17T12:34:28.465Z,97668.92
2019-03-17T12:36:58.627Z,97689.57
2019-03-17T12:39:28.926Z,97672.98
2019-03-17T12:42:01.108Z,97687.86
2019-03-17T12:44:31.310Z,97666.19
2019-03-17T12:47:01.593Z,97679.28
2019-03-17T12:49:32.377Z,97683.22
2019-03-17T12:52:02.773Z,97667.20
2019-03-17T12:54:33.083Z,97674.16
2019-03-17T12:57:03.299Z,97682.05
2019-03-17T12:59:34.139Z,97704.94
2019-03-17T13:02:04.683Z,97703.02
2019-03-17T13:04:35.784Z,97712.16
2019-03-17T13:07:06.088Z,97717.39
2019-03-17T13:09:36.571Z,97726.38
2019-03-17T13:12:07.102Z,97717.64
2019-03-17T13:14:37.387Z,97721.48
2019-03-17T13:17:07.939Z,97714.91
2019-03-17T13:19:38.592Z,97723.41
2019-03-17T13:22:09.231Z,97736.13
2019-03-17T13:24:40.128Z,97731.22
2019-03-17T13:27:10.359Z,97749.20
2019-03-17T13:29:40.532Z,97740.14
2019-03-17T13:32:11.088Z,97761.28
2019-03-17T13:34:41.288Z,97759.60
2019-03-17T13:37:12.141Z,97771.26
2019-03-17T13:39:43.026Z,97766.20
2019-03-17T13:42:13.649Z,97783.88
2019-03-17T13:44:43.915Z,97808.84
2019-03-17T13:47:14.184Z,97805.16
2019-03-17T13:49:44.740Z,97800.13
2019-03-17T13:52:15.314Z,97785.28
2019-03-17T13:54:45.797Z,97808.59
2019-03-17T13:57:16.103Z,97845.91
2019-03-17T13:59:47.165Z,97840.45
2019-03-17T14:02:17.418Z,97830.95
2019-03-17T14:04:47.688Z,97859.97
2019-03-17T14:07:18.239Z,97879.39
2019-03-17T14:09:48.836Z,97905.23
2019-03-17T14:12:19.633Z,97918.64
2019-03-17T14:14:50.791Z,97931.81
2019-03-17T14:17:21.038Z,97963.16
2019-03-17T14:19:51.386Z,97987.84
2019-03-17T14:22:22.345Z,98013.84
2019-03-17T14:24:52.875Z,98014.77
2019-03-17T14:27:23.178Z,98055.15
2019-03-17T14:29:53.824Z,98059.91
2019-03-17T14:32:24.115Z,98083.42
2019-03-17T14:34:54.712Z,98096.31
2019-03-17T14:37:25.828Z,98106.86
2019-03-17T14:39:56.765Z,98110.06
2019-03-17T14:42:27.696Z,98117.44
2019-03-17T14:44:58.008Z,98128.11
2019-03-17T14:47:28.881Z,98143.80
2019-03-17T14:49:59.496Z,98161.42
2019-03-17T14:52:31.037Z,98177.88
2019-03-17T14:55:01.673Z,98166.95
2019-03-17T14:57:32.901Z,98164.43
2019-03-17T15:00:03.458Z,98162.45
2019-03-17T15:02:34.051Z,98174.06
2019-03-17T15:05:04.498Z,98171.56
2019-03-17T15:07:35.077Z,98190.58
2019-03-17T15:10:06.344Z,98193.67
2019-03-17T15:12:36.879Z,98187.41
2019-03-17T15:15:08.529Z,98189.47
2019-03-17T15:17:39.565Z,98191.77
2019-03-17T15:20:11.841Z,98190.70
2019-03-17T15:22:42.730Z,98198.05
2019-03-17T15:25:13.585Z,98195.75
2019-03-17T15:27:44.261Z,98187.08
2019-03-17T15:30:19.967Z,98187.09
2019-03-17T15:32:50.323Z,98180.67
2019-03-17T15:35:21.023Z,98174.14
2019-03-17T15:37:51.283Z,98174.05
2019-03-17T15:40:21.892Z,98173.47
2019-03-17T15:42:52.627Z,98185.94
2019-03-17T15:45:22.924Z,98171.27
2019-03-17T15:47:53.197Z,98171.48
2019-03-17T15:50:23.989Z,98164.01
2019-03-17T15:52:55.190Z,98167.94
2019-03-17T15:55:25.468Z,98170.20
2019-03-17T15:57:55.699Z,98174.41
2019-03-17T16:00:26.961Z,98171.39
2019-03-17T16:02:59.098Z,98176.70
2019-03-17T16:05:29.753Z,98175.38
2019-03-17T16:07:59.988Z,98192.05
2019-03-17T16:10:30.271Z,98207.53
2019-03-17T16:13:01.221Z,98227.73
2019-03-17T16:15:31.911Z,98216.45
2019-03-17T16:18:02.441Z,98220.84
2019-03-17T16:20:34.635Z,98236.19
2019-03-17T16:23:05.860Z,98231.23
2019-03-17T16:25:36.218Z,98234.99
2019-03-17T16:28:07.191Z,98227.73
2019-03-17T16:30:37.487Z,98242.34
2019-03-17T16:33:07.697Z,98238.97
2019-03-17T16:35:39.057Z,98239.59
2019-03-17T16:38:09.976Z,98229.77
2019-03-17T16:40:41.704Z,98239.63
2019-03-17T16:43:11.936Z,98233.83
2019-03-17T16:45:43.114Z,98224.41
2019-03-17T16:48:13.379Z,98238.12
2019-03-17T16:50:44.376Z,98245.02
2019-03-17T16:53:15.005Z,98249.21
2019-03-17T16:55:45.682Z,98250.06
2019-03-17T16:58:16.018Z,98258.56
2019-03-17T17:00:46.246Z,98254.13
2019-03-17T17:03:16.653Z,98242.64
2019-03-17T17:05:46.906Z,98250.98
2019-03-17T17:08:17.214Z,98255.91
2019-03-17T17:10:50.167Z,98253.86
2019-03-17T17:13:19.472Z,98252.67
2019-03-17T17:15:49.731Z,98258.25
2019-03-17T17:18:19.914Z,98258.52
2019-03-17T17:20:50.509Z,98265.38
2019-03-17T17:23:20.712Z,98272.76
2019-03-17T17:25:51.360Z,98275.20
2019-03-17T17:28:22.044Z,98279.54
2019-03-17T17:30:52.645Z,98294.26
2019-03-17T17:33:23.176Z,98292.27
2019-03-17T17:35:53.522Z,98298.33
2019-03-17T17:38:24.555Z,98313.28
2019-03-17T17:40:54.955Z,98316.48
2019-03-17T17:43:25.284Z,98320.46
2019-03-17T17:45:55.830Z,98310.59
2019-03-17T17:48:26.077Z,98310.51
2019-03-17T17:50:56.355Z,98316.30
2019-03-17T17:53:26.649Z,98325.20
2019-03-17T17:55:57.830Z,98335.45
2019-03-17T17:58:28.453Z,98343.02
2019-03-17T18:00:58.998Z,98349.20
2019-03-17T18:03:29.726Z,98348.75
2019-03-17T18:06:00.464Z,98337.66
2019-03-17T18:08:31.066Z,98335.48
2019-03-17T18:11:02.698Z,98331.23
2019-03-17T18:13:33.296Z,98343.77
2019-03-17T18:16:07.807Z,98361.42
2019-03-17T18:18:38.161Z,98375.42
2019-03-17T18:21:08.347Z,98375.54
2019-03-17T18:23:39.246Z,98366.76
2019-03-17T18:26:09.821Z,98376.92
2019-03-17T18:28:40.022Z,98371.53
2019-03-17T18:31:10.360Z,98381.09
2019-03-17T18:33:40.552Z,98379.38
2019-03-17T18:36:11.184Z,98376.50
2019-03-17T18:38:41.417Z,98377.17
2019-03-17T18:41:11.638Z,98385.89
2019-03-17T18:43:43.291Z,98383.66
2019-03-17T18:46:14.019Z,98377.80
2019-03-17T18:48:44.592Z,98383.50
2019-03-17T18:51:15.218Z,98406.98
2019-03-17T18:53:45.407Z,98421.02
2019-03-17T18:56:15.670Z,98423.09
2019-03-17T18:58:46.177Z,98433.17
2019-03-17T19:01:16.561Z,98433.50
2019-03-17T19:03:46.831Z,98429.67
2019-03-17T19:06:17.651Z,98445.06
2019-03-17T19:08:47.974Z,98443.07
2019-03-17T19:11:18.294Z,98456.56
2019-03-17T19:13:48.515Z,98459.85
2019-03-17T19:16:19.011Z,98443.58
2019-03-17T19:18:50.032Z,98430.70
2019-03-17T19:21:20.619Z,98438.75
2019-03-17T19:23:50.880Z,98434.11
2019-03-17T19:26:21.140Z,98438.51
2019-03-17T19:28:52.659Z,98448.09
2019-03-17T19:31:22.914Z,98462.70
2019-03-17T19:33:53.195Z,98476.67
2019-03-17T19:36:23.710Z,98473.62
2019-03-17T19:38:54.247Z,98483.66
2019-03-17T19:41:25.405Z,98493.92
2019-03-17T19:43:55.709Z,98495.91
2019-03-17T19:46:26.976Z,98501.70
2019-03-17T19:48:57.608Z,98505.31
2019-03-17T19:51:28.240Z,98511.75
2019-03-17T19:53:58.450Z,98510.07
2019-03-17T19:56:28.656Z,98512.73
2019-03-17T19:58:59.614Z,98527.03
2019-03-17T20:01:30.869Z,98530.64
2019-03-17T20:04:01.190Z,98519.15
2019-03-17T20:06:31.831Z,98532.25
2019-03-17T20:09:02.149Z,98550.18
2019-03-17T20:11:33.529Z,98556.58
2019-03-17T20:14:04.548Z,98550.43
2019-03-17T20:16:35.152Z,98551.20
2019-03-17T20:19:05.423Z,98554.08
2019-03-17T20:21:35.897Z,98550.06
2019-03-17T20:24:06.169Z,98551.76
2019-03-17T20:26:36.854Z,98559.35
2019-03-17T20:29:07.448Z,98565.79
2019-03-17T20:31:37.663Z,98562.01
2019-03-17T20:34:08.286Z,98562.85
2019-03-17T20:36:38.799Z,98572.42
2019-03-17T20:39:10.660Z,98578.41
2019-03-17T20:41:41.701Z,98579.25
2019-03-17T20:44:11.919Z,98586.25
2019-03-17T20:46:42.191Z,98581.52
2019-03-17T20:49:12.457Z,98583.16
2019-03-17T20:51:42.733Z,98592.16
2019-03-17T20:54:13.098Z,98592.16
2019-03-17T20:56:43.386Z,98587.61
2019-03-17T20:59:13.591Z,98597.46
2019-03-17T21:01:43.785Z,98599.72
2019-03-17T21:04:14.019Z,98599.72
2019-03-17T21:06:44.263Z,98604.09
2019-03-17T21:09:14.844Z,98604.75
2019-03-17T21:11:45.134Z,98594.61
2019-03-17T21:14:15.712Z,98604.47
2019-03-17T21:16:47.011Z,98600.84
2019-03-17T21:19:17.971Z,98600.08
2019-03-17T21:21:48.500Z,98600.92
2019-03-17T21:24:18.737Z,98600.99
2019-03-17T21:26:49.796Z,98602.48
2019-03-17T21:29:20.115Z,98601.83
2019-03-17T21:31:50.456Z,98597.95
2019-03-17T21:34:20.856Z,98598.72
2019-03-17T21:36:51.510Z,98595.28
2019-03-17T21:39:22.177Z,98600.50
2019-03-17T21:41:52.987Z,98606.59
2019-03-17T21:44:23.352Z,98602.98
2019-03-17T21:46:53.692Z,98606.52
2019-03-17T21:49:23.900Z,98610.75
2019-03-17T21:51:54.844Z,98611.78
2019-03-17T21:54:25.335Z,98609.13
2019-03-17T21:56:55.977Z,98616.09
2019-03-17T21:59:26.896Z,98610.97
2019-03-17T22:01:57.613Z,98613.59
2019-03-17T22:04:28.255Z,98618.33
2019-03-17T22:06:59.910Z,98615.93
2019-03-17T22:09:30.249Z,98623.59
2019-03-17T22:12:00.608Z,98626.69
2019-03-17T22:14:31.218Z,98624.22
2019-03-17T22:17:02.152Z,98620.73
2019-03-17T22:19:32.445Z,98619.47
2019-03-17T22:22:03.059Z,98622.05
2019-03-17T22:24:33.348Z,98619.05
2019-03-17T22:27:03.566Z,98614.20
2019-03-17T22:29:34.501Z,98610.97
2019-03-17T22:32:04.738Z,98612.00
2019-03-17T22:34:35.286Z,98607.81
2019-03-17T22:37:05.475Z,98606.96
2019-03-17T22:39:35.696Z,98606.85
2019-03-17T22:42:07.324Z,98606.19
2019-03-17T22:44:37.700Z,98606.45
2019-03-17T22:47:08.254Z,98609.75
2019-03-17T22:49:38.534Z,98610.55
2019-03-17T22:52:08.754Z,98611.59
2019-03-17T22:54:39.029Z,98604.25
2019-03-17T22:57:09.311Z,98615.97
2019-03-17T22:59:40.432Z,98615.64
2019-03-17T23:02:11.055Z,98616.13
2019-03-17T23:04:41.458Z,98616.86
2019-03-17T23:07:11.723Z,98616.08
2019-03-17T23:09:42.296Z,98613.20
2019-03-17T23:12:12.484Z,98611.64
2019-03-17T23:14:42.751Z,98617.00
2019-03-17T23:17:13.025Z,98619.22
2019-03-17T23:19:43.620Z,98606.27
2019-03-17T23:22:13.877Z,98607.28
2019-03-17T23:24:44.383Z,98605.23
2019-03-17T23:27:14.654Z,98602.59
2019-03-17T23:29:44.890Z,98603.70
2019-03-17T23:32:15.182Z,98601.11
2019-03-17T23:34:45.482Z,98601.59
2019-03-17T23:37:16.232Z,98616.00
2019-03-17T23:39:46.520Z,98611.03
2019-03-17T23:42:17.407Z,98607.59
2019-03-17T23:44:49.215Z,98602.27
2019-03-17T23:47:19.690Z,98597.67
2019-03-17T23:49:49.990Z,98602.08
2019-03-17T23:52:20.279Z,98592.53
2019-03-17T23:54:50.477Z,98594.95
2019-03-17T23:57:20.714Z,98599.86
2019-03-17T23:59:53.504Z,98594.00
